Time;durP1;ratioP1;P1;durP2;ratioP2;P2;SDS_P1;SDS_P2;PMS_P1;PMS_P2;Temp;Humidity;BMP_temperature;BMP_pressure;BME280_temperature;BME280_humidity;BME280_pressure;Samples;Min_cycle;Max_cycle;Signal;HPM_P1;HPM_P2
2023/08/30 00:04:30;;;;;;;2.08;0.80;;;;;;;13.35;100.00;152037.38;10564707;28;20089;-73
2023/08/30 00:09:32;;;;;;;0.98;0.80;;;;;;;13.77;100.00;152143.50;10583282;28;20048;-73
2023/08/30 00:14:34;;;;;;;1.25;1.02;;;;;;;13.59;100.00;152099.50;10582982;28;20067;-72
2023/08/30 00:19:36;;;;;;;1.10;1.00;;;;;;;13.49;100.00;152073.59;10583888;28;20097;-72
2023/08/30 00:24:38;;;;;;;1.48;0.98;;;;;;;13.76;100.00;152140.88;10583561;28;20040;-72
2023/08/30 00:29:40;;;;;;;1.10;1.00;;;;;;;13.61;100.00;152104.66;10582859;28;20130;-72
2023/08/30 00:34:41;;;;;;;1.25;1.15;;;;;;;13.73;100.00;152134.44;10564178;28;20074;-72
2023/08/30 00:39:43;;;;;;;1.45;1.30;;;;;;;13.79;100.00;152149.97;10564753;28;20039;-72
2023/08/30 00:44:45;;;;;;;2.03;1.60;;;;;;;13.87;100.00;152169.38;10564947;28;20066;-72
2023/08/30 00:49:47;;;;;;;1.35;1.25;;;;;;;13.57;100.00;152094.31;10564212;28;20494;-72
2023/08/30 00:54:49;;;;;;;2.63;1.70;;;;;;;13.42;100.00;152054.22;10564405;28;20043;-72
2023/08/30 00:59:53;;;;;;;1.85;1.70;;;;;;;13.43;100.00;152056.78;10564334;28;20047;-73
2023/08/30 01:04:55;;;;;;;1.50;1.40;;;;;;;13.60;100.00;152102.09;10581935;28;20040;-73
2023/08/30 01:09:58;;;;;;;1.40;1.27;;;;;;;13.76;100.00;152140.88;10581889;28;20058;-73
2023/08/30 01:15:10;;;;;;;1.50;1.40;;;;;;;13.91;100.00;152178.44;10582007;28;20401;-73
2023/08/30 01:20:18;;;;;;;2.00;1.80;;;;;;;13.76;100.00;152140.88;10563145;28;20132;-73
2023/08/30 01:25:26;;;;;;;2.08;1.88;;;;;;;13.86;100.00;152168.09;10565278;28;20046;-77
2023/08/30 01:30:29;;;;;;;2.50;2.25;;;;;;;13.94;100.00;152186.19;10582861;28;20092;-76
2023/08/30 01:35:35;;;;;;;3.22;2.88;;;;;;;14.02;100.00;152208.19;10582690;28;20132;-77
2023/08/30 01:40:41;;;;;;;3.60;3.30;;;;;;;13.88;100.00;152173.25;10582606;28;20039;-77
2023/08/30 01:45:43;;;;;;;3.72;3.42;;;;;;;13.97;100.00;152195.25;10585412;28;20127;-77
2023/08/30 01:50:46;;;;;;;2.78;2.63;;;;;;;13.94;100.00;152186.19;10569562;28;20044;-77
2023/08/30 01:55:49;;;;;;;3.25;2.95;;;;;;;13.98;100.00;152196.53;10587986;28;20035;-77
2023/08/30 02:00:53;;;;;;;2.97;2.60;;;;;;;13.91;100.00;152178.44;10570221;28;20069;-77
2023/08/30 02:06:06;;;;;;;2.70;2.50;;;;;;;13.94;100.00;152187.47;10569344;28;20505;-77
2023/08/30 02:11:16;;;;;;;2.90;2.63;;;;;;;13.94;100.00;152186.19;10569125;28;20054;-78
2023/08/30 02:16:19;;;;;;;2.85;2.65;;;;;;;13.81;100.00;152155.16;10568960;28;20473;-77
2023/08/30 02:21:22;;;;;;;2.60;2.20;;;;;;;13.56;100.00;152091.72;10568514;28;20039;-76
2023/08/30 02:26:24;;;;;;;2.65;2.45;;;;;;;13.67;100.00;152118.88;10587281;28;20036;-76
2023/08/30 02:31:26;;;;;;;2.55;2.35;;;;;;;13.54;100.00;152086.53;10568724;28;20047;-77
2023/08/30 02:36:28;;;;;;;2.05;1.90;;;;;;;13.82;100.00;152157.75;10586896;28;20104;-77
2023/08/30 02:41:30;;;;;;;2.03;1.83;;;;;;;13.82;100.00;152156.44;10586030;28;20037;-76
2023/08/30 02:46:32;;;;;;;1.77;1.65;;;;;;;13.86;100.00;152168.09;10586236;28;20068;-76
2023/08/30 02:51:34;;;;;;;2.42;2.22;;;;;;;13.90;100.00;152177.16;10567358;28;20067;-76
2023/08/30 02:56:36;;;;;;;2.60;2.40;;;;;;;13.80;100.00;152151.25;10585799;28;20036;-78
2023/08/30 03:01:38;;;;;;;3.42;2.85;;;;;;;13.97;100.00;152195.25;10585183;28;20063;-76
2023/08/30 03:06:39;;;;;;;2.80;2.13;;;;;;;13.93;100.00;152184.91;10566640;28;20104;-77
2023/08/30 03:11:41;;;;;;;3.05;2.00;;;;;;;13.89;100.00;152175.81;10566538;28;20050;-76
2023/08/30 03:16:45;;;;;;;2.85;2.53;;;;;;;13.89;100.00;152174.53;10584827;28;20489;-76
2023/08/30 03:21:46;;;;;;;3.28;2.90;;;;;;;13.85;100.00;152164.19;10566066;28;20047;-76
2023/08/30 03:26:48;;;;;;;2.55;2.30;;;;;;;14.06;100.00;152218.56;10565795;28;20501;-76
2023/08/30 03:31:53;;;;;;;3.25;3.05;;;;;;;13.83;100.00;152159.03;10584758;28;20031;-76
2023/08/30 03:36:55;;;;;;;2.58;2.38;;;;;;;13.70;100.00;152125.38;10565614;28;20042;-76
2023/08/30 03:41:57;;;;;;;4.40;2.70;;;;;;;13.86;100.00;152168.09;10584114;28;20067;-76
2023/08/30 03:46:59;;;;;;;2.38;2.22;;;;;;;13.90;100.00;152177.16;10584536;28;20050;-75
2023/08/30 03:52:00;;;;;;;2.58;2.38;;;;;;;13.91;100.00;152179.75;10565982;28;20485;-75
2023/08/30 03:57:03;;;;;;;2.70;2.50;;;;;;;14.01;100.00;152205.63;10565309;28;20088;-75
2023/08/30 04:02:04;;;;;;;3.13;2.55;;;;;;;13.86;100.00;152168.09;10564739;28;20516;-76
2023/08/30 04:07:06;;;;;;;2.67;2.47;;;;;;;13.87;100.00;152170.66;10564152;28;20043;-75
2023/08/30 04:12:08;;;;;;;2.50;2.30;;;;;;;13.94;100.00;152187.47;10566735;28;20108;-76
2023/08/30 04:17:10;;;;;;;2.50;2.30;;;;;;;13.93;100.00;152183.59;10583317;28;20044;-77
2023/08/30 04:22:11;;;;;;;2.83;2.50;;;;;;;13.88;100.00;152171.97;10564589;28;20048;-77
2023/08/30 04:27:13;;;;;;;2.92;2.70;;;;;;;13.88;100.00;152171.97;10582960;28;20076;-76
2023/08/30 04:32:16;;;;;;;2.95;2.75;;;;;;;13.96;100.00;152192.69;10564117;28;20524;-75
2023/08/30 04:37:18;;;;;;;2.40;2.20;;;;;;;13.88;100.00;152173.25;10564543;28;20040;-75
2023/08/30 04:42:21;;;;;;;2.80;2.50;;;;;;;13.83;100.00;152160.31;10563951;28;20056;-76
2023/08/30 04:47:22;;;;;;;2.70;2.50;;;;;;;13.94;100.00;152186.19;10564101;28;20048;-77
2023/08/30 04:52:24;;;;;;;3.22;2.60;;;;;;;13.81;100.00;152153.81;10546792;28;20071;-76
2023/08/30 04:57:29;;;;;;;3.25;2.95;;;;;;;14.03;100.00;152209.47;10582074;28;20040;-78
2023/08/30 05:02:31;;;;;;;3.03;2.83;;;;;;;14.13;100.00;152236.69;10563548;28;20051;-75
2023/08/30 05:07:37;;;;;;;2.37;2.17;;;;;;;14.14;100.00;152238.00;10563587;28;20044;-77
2023/08/30 05:12:38;;;;;;;8.20;2.60;;;;;;;14.03;100.00;152209.47;10581446;28;20047;-76
2023/08/30 05:17:40;;;;;;;2.47;2.28;;;;;;;13.83;100.00;152159.03;10563085;28;20036;-75
2023/08/30 05:22:42;;;;;;;7.20;6.60;;;;;;;13.79;100.00;152149.97;10570840;28;20056;-76
2023/08/30 05:27:44;;;;;;;9.25;3.17;;;;;;;13.92;100.00;152182.31;10571032;28;20075;-76
2023/08/30 05:32:46;;;;;;;3.13;2.30;;;;;;;13.88;100.00;152171.97;10570941;28;20052;-76
2023/08/30 05:37:48;;;;;;;3.55;3.00;;;;;;;14.38;100.00;152300.09;10589306;28;20427;-76
2023/08/30 05:42:54;;;;;;;3.67;3.37;;;;;;;14.39;100.00;152301.44;10570761;28;20056;-77
2023/08/30 05:47:57;;;;;;;2.80;2.60;;;;;;;14.36;100.00;152293.66;10570246;28;20557;-76
2023/08/30 05:52:59;;;;;;;2.63;2.42;;;;;;;14.27;100.00;152271.66;10553392;28;20075;-77
2023/08/30 05:58:01;;;;;;;2.97;2.78;;;;;;;14.29;100.00;152275.50;10570655;28;20040;-76
2023/08/30 06:03:03;;;;;;;2.50;2.30;;;;;;;14.09;100.00;152226.34;10588446;28;20047;-75
2023/08/30 06:08:05;;;;;;;2.70;2.50;;;;;;;14.32;100.00;152283.28;10587334;28;20088;-76
2023/08/30 06:13:07;;;;;;;2.80;2.60;;;;;;;14.46;100.00;152318.25;10587630;28;20035;-76
2023/08/30 06:18:09;;;;;;;3.35;3.05;;;;;;;14.33;100.00;152287.16;10588407;28;20451;-76
2023/08/30 06:23:11;;;;;;;4.53;4.22;;;;;;;14.31;100.00;152280.72;10569569;28;20051;-76
2023/08/30 06:28:13;;;;;;;3.95;3.70;;;;;;;14.52;100.00;152335.16;10587123;28;20039;-76
2023/08/30 06:33:15;;;;;;;4.03;3.70;;;;;;;14.61;100.00;152357.19;10586276;28;20597;-75
2023/08/30 06:38:17;;;;;;;5.68;5.18;;;;;;;14.55;100.00;152342.91;10568159;28;20051;-76
2023/08/30 06:43:18;;;;;;;7.60;6.95;;;;;;;14.62;100.00;152359.75;10586708;28;20071;-76
2023/08/30 06:48:20;;;;;;;6.80;6.40;;;;;;;14.59;100.00;152353.25;10587008;28;20497;-75
2023/08/30 06:53:22;;;;;;;8.88;8.27;;;;;;;14.55;100.00;152341.59;10585728;28;20043;-75
2023/08/30 06:58:23;;;;;;;8.55;7.78;;;;;;;14.69;100.00;152377.84;10586227;28;20051;-76
2023/08/30 07:03:25;;;;;;;7.60;6.72;;;;;;;15.08;100.00;152476.31;10586428;28;20063;-75
2023/08/30 07:08:27;;;;;;;5.93;5.53;;;;;;;15.33;100.00;152541.09;10585016;28;20036;-75
2023/08/30 07:13:28;;;;;;;6.25;5.40;;;;;;;15.23;100.00;152515.19;10585250;28;20065;-76
2023/08/30 07:18:30;;;;;;;4.93;4.53;;;;;;;15.47;100.00;152574.78;10585269;28;20111;-76
2023/08/30 07:23:32;;;;;;;4.35;4.05;;;;;;;15.48;100.00;152577.38;10584726;28;20078;-73
2023/08/30 07:28:34;;;;;;;2.92;2.72;;;;;;;15.37;100.00;152551.47;10584894;28;20051;-72
2023/08/30 07:33:36;;;;;;;2.83;2.63;;;;;;;15.31;100.00;152535.88;10584030;28;20050;-72
2023/08/30 07:38:37;;;;;;;2.58;2.38;;;;;;;15.56;100.00;152598.09;10584099;28;20058;-73
2023/08/30 07:43:39;;;;;;;7.78;2.30;;;;;;;15.71;96.90;152635.72;10584223;28;20046;-73
2023/08/30 07:48:41;;;;;;;2.83;2.45;;;;;;;15.45;100.00;152570.91;10584339;28;20409;-73
2023/08/30 07:53:42;;;;;;;3.92;2.25;;;;;;;15.62;100.00;152613.63;10583648;28;20520;-73
2023/08/30 07:58:44;;;;;;;2.92;2.42;;;;;;;15.55;100.00;152596.81;10565236;28;20053;-73
2023/08/30 08:03:47;;;;;;;2.10;1.90;;;;;;;15.61;100.00;152611.06;10583289;28;20046;-73
2023/08/30 08:09:07;;;;;;;2.05;1.83;;;;;;;15.66;100.00;152624.06;10582485;28;20398;-72
2023/08/30 08:14:11;;;;;;;3.05;2.05;;;;;;;15.80;100.00;152660.34;10583376;28;20076;-73
2023/08/30 08:19:12;;;;;;;2.10;1.90;;;;;;;16.12;100.00;152742.03;10582534;28;20507;-73
2023/08/30 08:24:14;;;;;;;2.20;2.00;;;;;;;15.84;99.46;152669.41;10582088;28;20040;-73
2023/08/30 08:29:16;;;;;;;2.03;1.48;;;;;;;16.20;95.74;152761.44;10583536;28;20031;-72
2023/08/30 08:34:18;;;;;;;1.60;1.50;;;;;;;16.57;91.91;152856.13;10564170;28;20046;-73
2023/08/30 08:39:20;;;;;;;1.73;1.40;;;;;;;16.80;90.17;152914.53;10582972;28;20044;-73
2023/08/30 08:44:25;;;;;;;1.70;1.60;;;;;;;16.88;94.24;152935.28;10584241;28;20074;-73
2023/08/30 08:49:29;;;;;;;2.30;1.63;;;;;;;17.00;90.35;152963.81;10583735;28;20043;-73
2023/08/30 08:54:31;;;;;;;3.03;1.88;;;;;;;17.05;83.88;152976.81;10588650;28;20066;-73
2023/08/30 08:59:32;;;;;;;2.90;1.58;;;;;;;17.21;85.69;153017.00;10591874;28;20058;-73
2023/08/30 09:04:34;;;;;;;1.50;1.33;;;;;;;17.32;88.56;153046.88;10593498;28;20413;-72
2023/08/30 09:09:36;;;;;;;3.10;1.90;;;;;;;17.52;86.41;153096.16;10591434;28;20071;-73
2023/08/30 09:14:38;;;;;;;2.28;1.50;;;;;;;17.82;86.41;153174.09;10591999;28;20071;-73
2023/08/30 09:19:40;;;;;;;1.98;1.40;;;;;;;18.10;81.33;153245.44;10591970;28;20039;-73
2023/08/30 09:24:42;;;;;;;2.03;1.30;;;;;;;18.06;80.80;153233.78;10571856;28;20093;-73
2023/08/30 09:29:44;;;;;;;3.05;1.33;;;;;;;17.67;84.42;153135.13;10589150;28;20073;-73
2023/08/30 09:34:47;;;;;;;1.65;1.55;;;;;;;18.05;82.78;153232.47;10588584;28;20147;-73
2023/08/30 09:39:52;;;;;;;1.70;1.40;;;;;;;17.93;82.80;153201.38;10589178;28;20046;-73
2023/08/30 09:44:55;;;;;;;2.33;2.13;;;;;;;18.15;77.72;153258.47;10589192;28;20374;-73
2023/08/30 09:50:00;;;;;;;1.83;1.70;;;;;;;18.38;74.69;153315.59;10588050;28;20110;-73
2023/08/30 09:55:02;;;;;;;2.55;1.27;;;;;;;18.37;72.17;153312.97;10588550;28;20054;-73
2023/08/30 10:00:05;;;;;;;1.20;1.10;;;;;;;18.00;78.16;153219.50;10569753;28;20044;-74
2023/08/30 10:05:08;;;;;;;2.25;1.40;;;;;;;18.19;79.44;153267.53;10587755;28;20054;-73
2023/08/30 10:10:10;;;;;;;3.65;1.20;;;;;;;18.63;75.05;153380.50;10587807;28;20075;-72
2023/08/30 10:15:14;;;;;;;3.15;1.35;;;;;;;19.12;68.21;153505.28;10588518;28;20096;-72
2023/08/30 10:20:16;;;;;;;1.95;1.25;;;;;;;18.83;72.22;153429.91;10587020;28;20047;-73
2023/08/30 10:25:22;;;;;;;1.50;1.20;;;;;;;19.22;72.92;153529.94;10586943;28;20439;-73
2023/08/30 10:30:25;;;;;;;1.23;1.00;;;;;;;19.79;69.96;153674.19;10587094;28;20127;-73
2023/08/30 10:35:27;;;;;;;2.63;1.27;;;;;;;19.75;68.12;153663.84;10586391;28;20401;-73
2023/08/30 10:40:28;;;;;;;2.10;1.20;;;;;;;19.75;71.52;153663.84;10586101;28;20093;-73
2023/08/30 10:45:30;;;;;;;2.78;1.15;;;;;;;18.97;70.50;153465.00;10585804;28;20126;-73
2023/08/30 10:50:34;;;;;;;1.63;1.10;;;;;;;19.26;67.41;153539.06;10586384;28;20044;-73
2023/08/30 10:55:35;;;;;;;2.13;1.30;;;;;;;19.69;65.76;153649.50;10568195;28;20120;-73
2023/08/30 11:00:40;;;;;;;2.05;0.95;;;;;;;19.79;65.44;153675.53;10586012;28;20042;-73
2023/08/30 11:05:42;;;;;;;2.65;1.10;;;;;;;20.00;64.22;153727.50;10586420;28;20458;-73
2023/08/30 11:10:44;;;;;;;1.33;1.00;;;;;;;20.07;62.46;153745.72;10567554;28;20044;-73
2023/08/30 11:15:46;;;;;;;3.03;1.20;;;;;;;20.30;61.22;153804.22;10588884;28;20099;-74
2023/08/30 11:20:53;;;;;;;0.70;0.60;;;;;;;20.39;61.01;153827.59;10586827;28;20070;-73
2023/08/30 11:25:55;;;;;;;1.20;0.80;;;;;;;20.50;59.48;153856.28;10585488;28;20453;-73
2023/08/30 11:30:56;;;;;;;2.00;0.80;;;;;;;20.69;55.59;153903.09;10584719;28;20047;-73
2023/08/30 11:35:58;;;;;;;0.80;0.60;;;;;;;21.28;57.72;154053.94;10584482;28;20122;-73
2023/08/30 11:41:01;;;;;;;1.52;0.60;;;;;;;20.71;55.61;153908.28;10584712;28;20491;-73
2023/08/30 11:46:03;;;;;;;0.88;0.73;;;;;;;20.82;56.43;153936.91;10584250;28;20046;-73
2023/08/30 11:51:06;;;;;;;2.80;0.63;;;;;;;21.31;56.96;154063.13;10583951;28;20063;-73
2023/08/30 11:56:08;;;;;;;1.10;0.70;;;;;;;21.94;57.77;154221.84;10583253;28;20036;-73
2023/08/30 12:01:11;;;;;;;1.63;0.70;;;;;;;22.14;52.71;154274.00;10565450;28;20067;-73
2023/08/30 12:06:14;;;;;;;1.58;0.70;;;;;;;22.66;49.81;154406.75;10584685;28;20489;-73
2023/08/30 12:11:20;;;;;;;1.23;0.70;;;;;;;22.22;50.15;154293.47;10584136;28;20054;-74
2023/08/30 12:16:22;;;;;;;;;;;;;;;21.82;54.95;154191.91;10583952;28;20037;-74
2023/08/30 12:21:23;;;;;;;1.40;0.75;;;;;;;21.88;53.49;154207.56;10583527;28;20463;-73
2023/08/30 12:26:32;;;;;;;0.70;0.57;;;;;;;21.52;55.35;154115.19;10583361;28;20050;-73
2023/08/30 12:31:34;;;;;;;2.20;0.60;;;;;;;21.44;53.17;154094.34;10582360;28;20042;-72
2023/08/30 12:36:36;;;;;;;1.10;0.70;;;;;;;20.62;56.63;153887.44;10582711;28;20039;-73
2023/08/30 12:41:39;;;;;;;1.45;0.65;;;;;;;20.30;57.23;153804.22;10582003;28;20040;-73
2023/08/30 12:46:41;;;;;;;1.10;0.50;;;;;;;20.53;57.84;153864.06;10582124;28;20466;-73
2023/08/30 12:51:42;;;;;;;1.25;0.73;;;;;;;20.10;56.79;153754.81;10582297;28;20118;-73
2023/08/30 12:56:44;;;;;;;1.90;1.15;;;;;;;19.93;57.88;153709.34;10582217;28;20040;-78
2023/08/30 13:01:46;;;;;;;1.00;0.80;;;;;;;19.94;58.61;153713.22;10581594;28;20047;-77
2023/08/30 13:06:48;;;;;;;0.77;0.63;;;;;;;20.42;57.50;153836.72;10581864;28;20043;-74
2023/08/30 13:11:49;;;;;;;1.05;0.65;;;;;;;21.10;53.64;154008.41;10563261;28;20043;-74
2023/08/30 13:16:51;;;;;;;1.58;0.68;;;;;;;21.79;50.76;154185.44;10563126;28;20122;-75
2023/08/30 13:21:54;;;;;;;1.30;0.50;;;;;;;21.89;52.34;154210.16;10546155;28;20553;-74
2023/08/30 13:26:56;;;;;;;0.63;0.43;;;;;;;22.23;52.04;154297.41;10580799;28;20055;-74
2023/08/30 13:31:58;;;;;;;0.75;0.57;;;;;;;21.85;47.83;154201.03;10581260;28;20054;-74
2023/08/30 13:36:59;;;;;;;0.70;0.70;;;;;;;21.41;49.70;154089.13;10581064;28;20040;-73
2023/08/30 13:42:01;;;;;;;0.60;0.60;;;;;;;21.49;50.44;154107.34;10585719;28;20071;-73
2023/08/30 13:47:06;;;;;;;0.60;0.60;;;;;;;21.43;51.10;154093.06;10588863;28;20115;-73
2023/08/30 13:52:08;;;;;;;1.00;0.60;;;;;;;21.04;51.86;153994.13;10589363;28;20085;-73
2023/08/30 13:57:09;;;;;;;0.73;0.50;;;;;;;21.00;53.75;153982.41;10588005;28;20115;-73
2023/08/30 14:02:11;;;;;;;1.45;0.60;;;;;;;21.13;52.71;154016.25;10588422;28;20485;-73
2023/08/30 14:07:13;;;;;;;0.50;0.40;;;;;;;20.87;52.80;153949.91;10587744;28;20040;-74
2023/08/30 14:12:17;;;;;;;0.65;0.50;;;;;;;20.86;52.46;153948.59;10588360;28;20061;-73
2023/08/30 14:17:19;;;;;;;1.60;0.43;;;;;;;20.98;51.88;153977.19;10569416;28;20047;-73
2023/08/30 14:22:24;;;;;;;1.15;0.70;;;;;;;20.87;51.59;153949.91;10587218;28;20043;-74
2023/08/30 14:27:26;;;;;;;0.65;0.50;;;;;;;21.04;52.16;153992.84;10587135;28;20055;-73
2023/08/30 14:32:28;;;;;;;3.25;0.65;;;;;;;20.83;52.89;153940.78;10586452;28;20434;-73
2023/08/30 14:37:30;;;;;;;1.88;0.60;;;;;;;20.92;51.68;153962.91;10586147;28;20032;-74
2023/08/30 14:42:32;;;;;;;1.40;0.50;;;;;;;20.54;53.85;153866.69;10587682;28;20047;-73
2023/08/30 14:47:34;;;;;;;1.52;0.68;;;;;;;20.88;50.91;153953.78;10585951;28;20043;-74
2023/08/30 14:52:36;;;;;;;1.45;0.93;;;;;;;20.95;51.56;153970.72;10567595;28;20093;-73
2023/08/30 14:57:37;;;;;;;1.00;0.60;;;;;;;20.56;51.43;153871.88;10585435;28;20122;-74
2023/08/30 15:02:39;;;;;;;1.15;0.80;;;;;;;20.39;52.33;153828.91;10586194;28;20043;-74
2023/08/30 15:07:41;;;;;;;2.45;0.75;;;;;;;20.45;52.68;153841.91;10585327;28;20115;-73
2023/08/30 15:12:43;;;;;;;0.90;0.60;;;;;;;20.81;51.14;153935.59;10586058;28;20036;-73
2023/08/30 15:17:46;;;;;;;1.10;0.80;;;;;;;20.55;55.12;153867.97;10586241;28;20040;-73
2023/08/30 15:22:50;;;;;;;1.85;0.73;;;;;;;20.65;51.99;153895.28;10587856;28;20046;-73
2023/08/30 15:27:52;;;;;;;1.55;0.60;;;;;;;20.70;52.32;153905.69;10588627;28;20067;-73
2023/08/30 15:32:54;;;;;;;1.30;0.50;;;;;;;20.14;53.01;153765.22;10585478;28;20093;-73
2023/08/30 15:37:56;;;;;;;1.20;0.80;;;;;;;20.57;53.08;153873.16;10584037;28;20426;-73
2023/08/30 15:42:57;;;;;;;0.93;0.45;;;;;;;20.53;52.88;153862.75;10583991;28;20135;-73
2023/08/30 15:47:59;;;;;;;1.15;0.77;;;;;;;20.82;50.99;153938.19;10583388;28;20040;-73
2023/08/30 15:53:01;;;;;;;0.50;0.50;;;;;;;20.81;51.77;153935.59;10583113;28;20038;-73
2023/08/30 15:58:03;;;;;;;2.40;0.80;;;;;;;20.89;46.79;153955.06;10548477;28;20089;-73
2023/08/30 16:03:05;;;;;;;1.65;0.85;;;;;;;20.32;50.94;153810.72;10583789;28;20043;-73
2023/08/30 16:08:07;;;;;;;0.95;0.80;;;;;;;20.26;53.93;153793.81;10584302;28;20035;-73
2023/08/30 16:13:09;;;;;;;0.80;0.60;;;;;;;20.25;54.90;153792.50;10550204;28;20397;-73
2023/08/30 16:18:11;;;;;;;1.45;0.98;;;;;;;20.06;56.33;153743.13;10565292;28;20093;-73
2023/08/30 16:23:13;;;;;;;1.70;1.20;;;;;;;20.09;54.57;153750.91;10564489;28;20083;-74
2023/08/30 16:28:15;;;;;;;3.58;0.93;;;;;;;20.19;52.42;153775.59;10585048;28;20067;-74
2023/08/30 16:33:19;;;;;;;1.92;0.70;;;;;;;20.03;53.41;153736.59;10583043;28;20070;-74
2023/08/30 16:38:21;;;;;;;1.85;0.75;;;;;;;19.77;55.94;153670.31;10583312;28;20454;-73
2023/08/30 16:43:22;;;;;;;2.47;0.80;;;;;;;19.58;58.08;153622.19;10582192;28;20447;-73
2023/08/30 16:48:26;;;;;;;1.38;0.70;;;;;;;19.59;60.31;153624.78;10564114;28;20405;-73
2023/08/30 16:53:28;;;;;;;0.77;0.70;;;;;;;19.32;62.52;153554.63;10582582;28;20048;-73
2023/08/30 16:58:30;;;;;;;1.13;0.80;;;;;;;19.14;63.13;153509.16;10582054;28;20044;-72
2023/08/30 17:03:32;;;;;;;1.20;0.82;;;;;;;19.01;65.11;153475.38;10581886;28;20050;-72
2023/08/30 17:08:34;;;;;;;3.33;1.30;;;;;;;18.87;66.42;153440.31;10563817;28;20048;-72
2023/08/30 17:13:36;;;;;;;1.30;1.00;;;;;;;18.74;66.53;153406.56;10583744;28;20520;-72
2023/08/30 17:18:39;;;;;;;1.05;0.90;;;;;;;18.68;69.17;153392.19;10591822;28;20036;-74
2023/08/30 17:23:41;;;;;;;1.38;1.00;;;;;;;18.49;69.44;153342.84;10571704;28;20055;-73
2023/08/30 17:28:43;;;;;;;3.40;1.20;;;;;;;18.37;70.92;153312.97;10571143;28;20043;-74
2023/08/30 17:33:44;;;;;;;1.23;0.93;;;;;;;18.31;72.79;153297.41;10589672;28;20086;-72
2023/08/30 17:38:47;;;;;;;2.08;1.20;;;;;;;18.37;70.16;153312.97;10570967;28;20473;-74
2023/08/30 17:43:49;;;;;;;1.25;1.02;;;;;;;18.25;72.03;153281.84;10589025;28;20047;-73
2023/08/30 17:48:50;;;;;;;2.03;1.42;;;;;;;18.10;72.07;153244.16;10588870;28;20478;-73
2023/08/30 17:53:52;;;;;;;2.00;1.50;;;;;;;17.97;73.67;153210.41;10588300;28;20070;-73
2023/08/30 17:58:54;;;;;;;1.63;1.48;;;;;;;17.90;73.30;153193.56;10588604;28;20035;-74
2023/08/30 18:03:56;;;;;;;2.22;1.70;;;;;;;17.71;74.00;153145.50;10570650;28;20086;-74
2023/08/30 18:08:58;;;;;;;2.33;1.92;;;;;;;17.67;72.96;153133.81;10588050;28;20504;-73
2023/08/30 18:14:00;;;;;;;4.65;2.20;;;;;;;17.56;74.49;153106.53;10588438;28;20073;-73
2023/08/30 18:19:03;;;;;;;2.28;1.60;;;;;;;17.42;75.46;153070.22;10587875;28;20110;-73
2023/08/30 18:24:17;;;;;;;2.75;1.80;;;;;;;17.30;76.04;153040.38;10588786;28;20050;-72
2023/08/30 18:29:19;;;;;;;1.75;1.40;;;;;;;17.18;76.81;153010.56;10569085;28;20089;-74
2023/08/30 18:34:21;;;;;;;1.75;1.58;;;;;;;17.11;78.10;152993.66;10587783;28;20065;-75
2023/08/30 18:39:23;;;;;;;2.53;1.63;;;;;;;16.95;79.44;152952.13;10588201;28;20559;-74
2023/08/30 18:44:25;;;;;;;1.75;1.60;;;;;;;16.84;79.57;152923.63;10570066;28;20485;-77
2023/08/30 18:49:27;;;;;;;3.72;2.15;;;;;;;16.93;78.71;152945.69;10588132;28;20059;-77
2023/08/30 18:54:28;;;;;;;2.53;2.15;;;;;;;16.94;79.00;152949.56;10589095;28;20067;-76
2023/08/30 18:59:30;;;;;;;3.03;1.88;;;;;;;16.80;80.03;152913.25;10588591;28;20409;-78
2023/08/30 19:04:32;;;;;;;2.38;2.03;;;;;;;16.74;81.17;152897.69;10588380;28;20080;-78
2023/08/30 19:09:36;;;;;;;3.92;2.30;;;;;;;16.61;80.98;152865.22;10552621;28;20058;-78
2023/08/30 19:14:37;;;;;;;2.53;1.98;;;;;;;16.46;81.83;152827.59;10590757;28;20044;-77
2023/08/30 19:19:39;;;;;;;7.20;2.38;;;;;;;16.49;81.62;152834.09;10589176;28;20064;-77
2023/08/30 19:24:41;;;;;;;5.47;2.00;;;;;;;16.42;82.59;152815.91;10569241;28;20047;-74
2023/08/30 19:29:44;;;;;;;2.58;2.05;;;;;;;16.34;82.72;152797.78;10585609;28;20074;-74
2023/08/30 19:34:49;;;;;;;2.50;2.15;;;;;;;16.26;82.90;152775.75;10568034;28;20040;-74
2023/08/30 19:39:52;;;;;;;2.38;2.17;;;;;;;16.17;83.68;152752.41;10587614;28;20036;-76
2023/08/30 19:45:00;;;;;;;2.80;1.90;;;;;;;16.11;84.71;152739.47;10586687;28;20044;-75
2023/08/30 19:50:02;;;;;;;2.42;1.85;;;;;;;16.07;84.11;152729.09;10586353;28;20039;-75
2023/08/30 19:55:04;;;;;;;5.70;1.80;;;;;;;15.99;85.13;152708.34;10567040;28;20119;-74
2023/08/30 20:00:09;;;;;;;4.78;2.70;;;;;;;16.07;84.31;152729.09;10584677;28;20031;-75
2023/08/30 20:05:14;;;;;;;2.60;2.40;;;;;;;16.04;84.75;152720.00;10584369;28;20126;-74
2023/08/30 20:10:15;;;;;;;2.50;2.15;;;;;;;15.99;84.87;152708.34;10584057;28;20042;-74
2023/08/30 20:15:17;;;;;;;2.97;1.88;;;;;;;15.97;83.73;152701.84;10583952;28;20548;-74
2023/08/30 20:20:19;;;;;;;2.40;1.83;;;;;;;16.00;83.16;152710.91;10583441;28;20032;-74
2023/08/30 20:25:21;;;;;;;3.13;2.00;;;;;;;15.95;83.41;152696.66;10565975;28;20073;-74
2023/08/30 20:30:23;;;;;;;4.85;1.45;;;;;;;16.04;82.78;152720.00;10565250;28;20043;-75
2023/08/30 20:35:24;;;;;;;2.95;1.73;;;;;;;16.00;83.51;152710.91;10583925;28;20055;-74
2023/08/30 20:40:26;;;;;;;3.80;1.60;;;;;;;15.97;82.68;152701.84;10583304;28;20417;-75
2023/08/30 20:45:28;;;;;;;1.65;1.27;;;;;;;16.00;81.51;152709.63;10583338;28;20126;-75
2023/08/30 20:50:34;;;;;;;8.05;1.50;;;;;;;15.91;82.17;152686.28;10590328;28;20039;-74
2023/08/30 20:55:43;;;;;;;2.53;1.77;;;;;;;15.84;82.30;152669.41;10597557;28;20044;-74
2023/08/30 21:00:53;;;;;;;2.92;2.65;;;;;;;15.78;82.70;152653.88;10596925;28;20035;-74
2023/08/30 21:05:55;;;;;;;4.45;3.38;;;;;;;15.53;85.62;152591.59;10597038;28;20492;-74
2023/08/30 21:10:57;;;;;;;3.85;2.55;;;;;;;15.61;83.95;152611.06;10595707;28;20115;-73
2023/08/30 21:15:59;;;;;;;4.35;3.20;;;;;;;15.36;86.87;152547.53;10596338;28;20115;-73
2023/08/30 21:21:01;;;;;;;4.25;3.15;;;;;;;15.17;88.81;152498.34;10595370;28;20119;-74
2023/08/30 21:26:03;;;;;;;2.15;1.95;;;;;;;15.27;87.28;152524.22;10595505;28;20050;-74
2023/08/30 21:31:05;;;;;;;2.70;2.05;;;;;;;15.37;86.97;152551.47;10595751;28;20063;-73
2023/08/30 21:36:11;;;;;;;2.00;1.75;;;;;;;15.41;86.38;152560.53;10595245;28;20046;-74
2023/08/30 21:41:13;;;;;;;2.23;1.67;;;;;;;15.41;86.84;152559.25;10595438;28;20118;-74
2023/08/30 21:46:14;;;;;;;2.38;1.90;;;;;;;15.23;88.10;152513.84;10577325;28;20289;-74
2023/08/30 21:51:16;;;;;;;3.65;1.73;;;;;;;15.15;88.97;152494.47;10595074;28;20055;-74
2023/08/30 21:56:18;;;;;;;1.80;1.42;;;;;;;15.08;89.61;152476.31;10595171;28;20043;-74
2023/08/30 22:01:19;;;;;;;1.65;1.48;;;;;;;15.04;89.51;152467.22;10591464;28;20051;-74
2023/08/30 22:06:21;;;;;;;1.70;1.60;;;;;;;14.90;90.60;152430.97;10587929;28;20096;-74
2023/08/30 22:11:23;;;;;;;2.63;1.42;;;;;;;14.75;90.66;152393.44;10570384;28;20123;-73
2023/08/30 22:16:25;;;;;;;1.75;1.55;;;;;;;14.60;91.85;152355.84;10588371;28;20048;-73
2023/08/30 22:21:27;;;;;;;2.00;1.80;;;;;;;14.55;92.77;152342.91;10587360;28;20545;-74
2023/08/30 22:26:29;;;;;;;2.28;2.05;;;;;;;14.68;91.83;152373.97;10568742;28;20043;-74
2023/08/30 22:31:31;;;;;;;3.85;2.45;;;;;;;14.81;88.82;152408.94;10587740;28;20035;-73
2023/08/30 22:36:33;;;;;;;2.45;2.25;;;;;;;14.85;87.79;152419.31;10586477;28;20473;-73
2023/08/30 22:41:34;;;;;;;2.63;2.20;;;;;;;14.95;86.18;152442.63;10567810;28;20443;-73
2023/08/30 22:46:37;;;;;;;2.10;1.90;;;;;;;14.98;85.63;152451.72;10586790;28;20085;-73
2023/08/30 22:51:39;;;;;;;2.58;2.38;;;;;;;15.14;83.10;152491.88;10586046;28;20477;-74
2023/08/30 22:56:54;;;;;;;2.10;2.00;;;;;;;15.23;82.63;152513.84;10587413;28;20040;-74
2023/08/30 23:01:56;;;;;;;2.83;2.63;;;;;;;15.34;80.97;152542.38;10585366;28;20039;-74
2023/08/30 23:06:57;;;;;;;2.50;2.03;;;;;;;15.54;79.03;152592.94;10585360;28;20043;-74